sensor_id;sensor_type;location;lat;lon;timestamp;P1;durP1;ratioP1;P2;durP2;ratioP2
7607;SDS011;3845;48.120;11.534;2023-05-27T00:01:56;7.67;;;6.13;;
7607;SDS011;3845;48.120;11.534;2023-05-27T00:04:21;6.73;;;5.63;;
7607;SDS011;3845;48.120;11.534;2023-05-27T00:06:47;9.07;;;6.27;;
7607;SDS011;3845;48.120;11.534;2023-05-27T00:09:12;8.00;;;6.13;;
7607;SDS011;3845;48.120;11.534;2023-05-27T00:11:38;7.67;;;6.37;;
7607;SDS011;3845;48.120;11.534;2023-05-27T00:14:04;7.80;;;6.00;;
7607;SDS011;3845;48.120;11.534;2023-05-27T00:16:29;8.37;;;5.70;;
7607;SDS011;3845;48.120;11.534;2023-05-27T00:18:56;7.97;;;6.00;;
7607;SDS011;3845;48.120;11.534;2023-05-27T00:21:21;7.80;;;5.90;;
7607;SDS011;3845;48.120;11.534;2023-05-27T00:23:47;8.13;;;6.50;;
7607;SDS011;3845;48.120;11.534;2023-05-27T00:26:12;7.93;;;6.43;;
7607;SDS011;3845;48.120;11.534;2023-05-27T00:28:38;7.47;;;6.67;;
7607;SDS011;3845;48.120;11.534;2023-05-27T00:31:05;7.20;;;6.20;;
7607;SDS011;3845;48.120;11.534;2023-05-27T00:33:30;9.50;;;6.63;;
7607;SDS011;3845;48.120;11.534;2023-05-27T00:35:55;8.77;;;6.80;;
7607;SDS011;3845;48.120;11.534;2023-05-27T00:38:20;10.47;;;7.10;;
7607;SDS011;3845;48.120;11.534;2023-05-27T00:40:46;9.37;;;8.00;;
7607;SDS011;3845;48.120;11.534;2023-05-27T00:43:11;9.50;;;7.00;;
7607;SDS011;3845;48.120;11.534;2023-05-27T00:45:37;10.17;;;6.97;;
7607;SDS011;3845;48.120;11.534;2023-05-27T00:48:02;9.53;;;7.27;;
7607;SDS011;3845;48.120;11.534;2023-05-27T00:50:28;7.97;;;6.90;;
7607;SDS011;3845;48.120;11.534;2023-05-27T00:52:54;8.63;;;6.47;;
7607;SDS011;3845;48.120;11.534;2023-05-27T00:55:20;7.73;;;6.23;;
7607;SDS011;3845;48.120;11.534;2023-05-27T00:57:46;10.50;;;7.47;;
7607;SDS011;3845;48.120;11.534;2023-05-27T01:00:12;7.97;;;7.10;;
7607;SDS011;3845;48.120;11.534;2023-05-27T01:02:38;9.07;;;6.73;;
7607;SDS011;3845;48.120;11.534;2023-05-27T01:05:08;8.53;;;7.43;;
7607;SDS011;3845;48.120;11.534;2023-05-27T01:15:30;7.53;;;6.53;;
7607;SDS011;3845;48.120;11.534;2023-05-27T01:17:57;8.27;;;6.70;;
7607;SDS011;3845;48.120;11.534;2023-05-27T01:20:27;7.20;;;6.50;;
7607;SDS011;3845;48.120;11.534;2023-05-27T01:22:54;7.87;;;6.17;;
7607;SDS011;3845;48.120;11.534;2023-05-27T01:25:22;7.97;;;6.57;;
7607;SDS011;3845;48.120;11.534;2023-05-27T01:27:48;8.90;;;6.73;;
7607;SDS011;3845;48.120;11.534;2023-05-27T01:30:13;7.80;;;7.00;;
7607;SDS011;3845;48.120;11.534;2023-05-27T01:35:31;9.63;;;7.27;;
7607;SDS011;3845;48.120;11.534;2023-05-27T01:38:16;9.27;;;7.13;;
7607;SDS011;3845;48.120;11.534;2023-05-27T01:40:43;8.90;;;7.40;;
7607;SDS011;3845;48.120;11.534;2023-05-27T01:43:09;7.50;;;6.70;;
7607;SDS011;3845;48.120;11.534;2023-05-27T01:45:36;7.87;;;6.73;;
7607;SDS011;3845;48.120;11.534;2023-05-27T01:48:02;8.30;;;6.63;;
7607;SDS011;3845;48.120;11.534;2023-05-27T01:50:28;9.63;;;6.77;;
7607;SDS011;3845;48.120;11.534;2023-05-27T01:52:55;7.70;;;6.90;;
7607;SDS011;3845;48.120;11.534;2023-05-27T01:55:21;7.87;;;6.23;;
7607;SDS011;3845;48.120;11.534;2023-05-27T01:57:47;7.00;;;6.20;;
7607;SDS011;3845;48.120;11.534;2023-05-27T02:00:12;6.77;;;5.90;;
7607;SDS011;3845;48.120;11.534;2023-05-27T02:02:38;7.63;;;5.93;;
7607;SDS011;3845;48.120;11.534;2023-05-27T02:05:03;6.63;;;5.67;;
7607;SDS011;3845;48.120;11.534;2023-05-27T02:07:28;8.00;;;6.27;;
7607;SDS011;3845;48.120;11.534;2023-05-27T02:09:54;6.43;;;5.80;;
7607;SDS011;3845;48.120;11.534;2023-05-27T02:12:19;8.50;;;6.10;;
7607;SDS011;3845;48.120;11.534;2023-05-27T02:14:45;9.23;;;6.47;;
7607;SDS011;3845;48.120;11.534;2023-05-27T02:17:10;8.70;;;7.27;;
7607;SDS011;3845;48.120;11.534;2023-05-27T02:19:36;7.60;;;6.70;;
7607;SDS011;3845;48.120;11.534;2023-05-27T02:22:01;7.43;;;6.30;;
7607;SDS011;3845;48.120;11.534;2023-05-27T02:24:27;8.20;;;6.23;;
7607;SDS011;3845;48.120;11.534;2023-05-27T02:26:52;9.70;;;7.20;;
7607;SDS011;3845;48.120;11.534;2023-05-27T02:29:17;7.87;;;7.07;;
7607;SDS011;3845;48.120;11.534;2023-05-27T02:31:42;7.27;;;6.30;;
7607;SDS011;3845;48.120;11.534;2023-05-27T02:34:08;8.03;;;6.37;;
7607;SDS011;3845;48.120;11.534;2023-05-27T02:36:33;9.33;;;7.33;;
7607;SDS011;3845;48.120;11.534;2023-05-27T02:38:59;8.57;;;7.23;;
7607;SDS011;3845;48.120;11.534;2023-05-27T02:41:25;9.93;;;7.00;;
7607;SDS011;3845;48.120;11.534;2023-05-27T02:43:51;9.73;;;6.43;;
7607;SDS011;3845;48.120;11.534;2023-05-27T02:46:16;7.17;;;6.30;;
7607;SDS011;3845;48.120;11.534;2023-05-27T02:48:41;8.37;;;6.03;;
7607;SDS011;3845;48.120;11.534;2023-05-27T02:51:06;9.47;;;6.30;;
7607;SDS011;3845;48.120;11.534;2023-05-27T02:53:32;9.07;;;6.30;;
7607;SDS011;3845;48.120;11.534;2023-05-27T02:55:57;7.43;;;6.30;;
7607;SDS011;3845;48.120;11.534;2023-05-27T02:58:22;8.53;;;5.90;;
7607;SDS011;3845;48.120;11.534;2023-05-27T03:00:48;8.40;;;7.07;;
7607;SDS011;3845;48.120;11.534;2023-05-27T03:03:13;8.67;;;6.17;;
7607;SDS011;3845;48.120;11.534;2023-05-27T03:05:38;8.23;;;5.83;;
7607;SDS011;3845;48.120;11.534;2023-05-27T03:08:04;7.73;;;5.93;;
7607;SDS011;3845;48.120;11.534;2023-05-27T03:10:31;6.93;;;6.23;;
7607;SDS011;3845;48.120;11.534;2023-05-27T03:12:57;6.90;;;6.10;;
7607;SDS011;3845;48.120;11.534;2023-05-27T03:15:22;7.80;;;6.23;;
7607;SDS011;3845;48.120;11.534;2023-05-27T03:17:47;9.00;;;6.70;;
7607;SDS011;3845;48.120;11.534;2023-05-27T03:20:13;7.10;;;6.07;;
7607;SDS011;3845;48.120;11.534;2023-05-27T03:22:38;8.20;;;6.07;;
7607;SDS011;3845;48.120;11.534;2023-05-27T03:25:03;7.57;;;5.63;;
7607;SDS011;3845;48.120;11.534;2023-05-27T03:27:30;7.53;;;6.10;;
7607;SDS011;3845;48.120;11.534;2023-05-27T03:29:55;7.10;;;6.20;;
7607;SDS011;3845;48.120;11.534;2023-05-27T03:32:21;7.23;;;5.87;;
7607;SDS011;3845;48.120;11.534;2023-05-27T03:34:46;6.73;;;5.40;;
7607;SDS011;3845;48.120;11.534;2023-05-27T03:37:11;7.00;;;5.70;;
7607;SDS011;3845;48.120;11.534;2023-05-27T03:39:39;6.50;;;5.70;;
7607;SDS011;3845;48.120;11.534;2023-05-27T03:42:04;7.67;;;6.00;;
7607;SDS011;3845;48.120;11.534;2023-05-27T03:44:30;6.03;;;5.43;;
7607;SDS011;3845;48.120;11.534;2023-05-27T03:46:56;8.13;;;6.63;;
7607;SDS011;3845;48.120;11.534;2023-05-27T03:49:21;7.80;;;6.43;;
7607;SDS011;3845;48.120;11.534;2023-05-27T03:51:46;8.73;;;6.53;;
7607;SDS011;3845;48.120;11.534;2023-05-27T03:54:12;7.70;;;6.10;;
7607;SDS011;3845;48.120;11.534;2023-05-27T03:56:37;6.93;;;5.90;;
7607;SDS011;3845;48.120;11.534;2023-05-27T03:59:03;6.20;;;5.60;;
7607;SDS011;3845;48.120;11.534;2023-05-27T04:01:28;7.70;;;6.20;;
7607;SDS011;3845;48.120;11.534;2023-05-27T04:03:53;7.07;;;5.90;;
7607;SDS011;3845;48.120;11.534;2023-05-27T04:06:19;6.00;;;4.93;;
7607;SDS011;3845;48.120;11.534;2023-05-27T04:08:44;8.73;;;5.73;;
7607;SDS011;3845;48.120;11.534;2023-05-27T04:11:10;6.87;;;5.67;;
7607;SDS011;3845;48.120;11.534;2023-05-27T04:13:37;8.13;;;5.60;;
7607;SDS011;3845;48.120;11.534;2023-05-27T04:16:02;8.67;;;5.97;;
7607;SDS011;3845;48.120;11.534;2023-05-27T04:18:28;8.13;;;5.60;;
7607;SDS011;3845;48.120;11.534;2023-05-27T04:20:53;8.00;;;6.10;;
7607;SDS011;3845;48.120;11.534;2023-05-27T04:23:18;9.43;;;6.53;;
7607;SDS011;3845;48.120;11.534;2023-05-27T04:25:44;7.07;;;6.30;;
7607;SDS011;3845;48.120;11.534;2023-05-27T04:28:09;9.70;;;6.53;;
7607;SDS011;3845;48.120;11.534;2023-05-27T04:30:35;7.53;;;6.03;;
7607;SDS011;3845;48.120;11.534;2023-05-27T04:33:01;7.53;;;5.53;;
7607;SDS011;3845;48.120;11.534;2023-05-27T04:35:27;6.77;;;5.67;;
7607;SDS011;3845;48.120;11.534;2023-05-27T04:37:52;6.57;;;5.20;;
7607;SDS011;3845;48.120;11.534;2023-05-27T04:40:17;6.67;;;5.57;;
7607;SDS011;3845;48.120;11.534;2023-05-27T04:42:44;7.53;;;5.63;;
7607;SDS011;3845;48.120;11.534;2023-05-27T04:45:09;8.40;;;6.43;;
7607;SDS011;3845;48.120;11.534;2023-05-27T04:47:38;6.87;;;5.80;;
7607;SDS011;3845;48.120;11.534;2023-05-27T04:50:06;6.43;;;5.30;;
7607;SDS011;3845;48.120;11.534;2023-05-27T04:52:32;7.43;;;5.80;;
7607;SDS011;3845;48.120;11.534;2023-05-27T04:55:07;7.33;;;5.43;;
7607;SDS011;3845;48.120;11.534;2023-05-27T04:57:33;6.53;;;5.80;;
7607;SDS011;3845;48.120;11.534;2023-05-27T04:59:59;6.47;;;5.73;;
7607;SDS011;3845;48.120;11.534;2023-05-27T05:02:28;8.63;;;6.57;;
7607;SDS011;3845;48.120;11.534;2023-05-27T05:05:03;9.53;;;6.90;;
7607;SDS011;3845;48.120;11.534;2023-05-27T05:07:30;6.27;;;5.63;;
7607;SDS011;3845;48.120;11.534;2023-05-27T05:09:55;6.17;;;5.50;;
7607;SDS011;3845;48.120;11.534;2023-05-27T05:12:21;5.93;;;5.17;;
7607;SDS011;3845;48.120;11.534;2023-05-27T05:14:47;7.87;;;5.67;;
7607;SDS011;3845;48.120;11.534;2023-05-27T05:17:12;8.30;;;5.73;;
7607;SDS011;3845;48.120;11.534;2023-05-27T05:19:37;7.77;;;6.07;;
7607;SDS011;3845;48.120;11.534;2023-05-27T05:22:03;6.70;;;5.87;;
7607;SDS011;3845;48.120;11.534;2023-05-27T05:24:29;7.90;;;6.30;;
7607;SDS011;3845;48.120;11.534;2023-05-27T05:26:54;9.50;;;6.40;;
7607;SDS011;3845;48.120;11.534;2023-05-27T05:29:19;11.00;;;6.13;;
7607;SDS011;3845;48.120;11.534;2023-05-27T05:31:45;6.30;;;5.20;;
7607;SDS011;3845;48.120;11.534;2023-05-27T05:34:10;7.67;;;5.63;;
7607;SDS011;3845;48.120;11.534;2023-05-27T05:36:36;7.83;;;5.97;;
7607;SDS011;3845;48.120;11.534;2023-05-27T05:39:02;7.20;;;5.60;;
7607;SDS011;3845;48.120;11.534;2023-05-27T05:41:28;6.90;;;5.50;;
7607;SDS011;3845;48.120;11.534;2023-05-27T05:43:53;6.63;;;5.60;;
7607;SDS011;3845;48.120;11.534;2023-05-27T05:46:19;8.13;;;5.70;;
7607;SDS011;3845;48.120;11.534;2023-05-27T05:48:44;7.07;;;5.00;;
7607;SDS011;3845;48.120;11.534;2023-05-27T05:51:11;6.20;;;4.90;;
7607;SDS011;3845;48.120;11.534;2023-05-27T05:53:36;6.70;;;5.07;;
7607;SDS011;3845;48.120;11.534;2023-05-27T05:56:01;5.27;;;4.27;;
7607;SDS011;3845;48.120;11.534;2023-05-27T05:58:27;8.33;;;4.97;;
7607;SDS011;3845;48.120;11.534;2023-05-27T06:00:52;5.67;;;4.53;;
7607;SDS011;3845;48.120;11.534;2023-05-27T06:03:18;6.03;;;4.67;;
7607;SDS011;3845;48.120;11.534;2023-05-27T06:05:43;7.47;;;5.00;;
7607;SDS011;3845;48.120;11.534;2023-05-27T06:08:08;6.83;;;4.90;;
7607;SDS011;3845;48.120;11.534;2023-05-27T06:10:34;7.90;;;4.93;;
7607;SDS011;3845;48.120;11.534;2023-05-27T06:12:59;6.83;;;5.00;;
7607;SDS011;3845;48.120;11.534;2023-05-27T06:15:25;6.13;;;4.37;;
7607;SDS011;3845;48.120;11.534;2023-05-27T06:17:52;5.27;;;4.30;;
7607;SDS011;3845;48.120;11.534;2023-05-27T06:20:18;6.43;;;4.67;;
7607;SDS011;3845;48.120;11.534;2023-05-27T06:22:43;5.53;;;4.40;;
7607;SDS011;3845;48.120;11.534;2023-05-27T06:25:09;6.23;;;4.43;;
7607;SDS011;3845;48.120;11.534;2023-05-27T06:27:34;6.10;;;4.40;;
7607;SDS011;3845;48.120;11.534;2023-05-27T06:29:59;7.67;;;4.53;;
7607;SDS011;3845;48.120;11.534;2023-05-27T06:32:25;5.83;;;4.53;;
7607;SDS011;3845;48.120;11.534;2023-05-27T06:34:50;6.87;;;4.77;;
7607;SDS011;3845;48.120;11.534;2023-05-27T06:37:15;6.03;;;5.00;;
7607;SDS011;3845;48.120;11.534;2023-05-27T06:39:40;4.63;;;4.13;;
7607;SDS011;3845;48.120;11.534;2023-05-27T06:42:06;5.63;;;4.00;;
7607;SDS011;3845;48.120;11.534;2023-05-27T06:44:31;5.67;;;3.77;;
7607;SDS011;3845;48.120;11.534;2023-05-27T06:46:56;7.10;;;4.80;;
7607;SDS011;3845;48.120;11.534;2023-05-27T06:49:22;8.70;;;4.70;;
7607;SDS011;3845;48.120;11.534;2023-05-27T06:51:47;6.20;;;3.78;;
7607;SDS011;3845;48.120;11.534;2023-05-27T06:54:12;7.65;;;4.15;;
7607;SDS011;3845;48.120;11.534;2023-05-27T06:56:37;6.50;;;4.45;;
7607;SDS011;3845;48.120;11.534;2023-05-27T06:59:03;5.88;;;4.50;;
7607;SDS011;3845;48.120;11.534;2023-05-27T07:01:28;5.20;;;3.90;;
7607;SDS011;3845;48.120;11.534;2023-05-27T07:03:54;7.35;;;4.18;;
7607;SDS011;3845;48.120;11.534;2023-05-27T07:06:19;9.07;;;4.55;;
7607;SDS011;3845;48.120;11.534;2023-05-27T07:08:44;5.15;;;4.03;;
7607;SDS011;3845;48.120;11.534;2023-05-27T07:11:10;5.18;;;3.83;;
7607;SDS011;3845;48.120;11.534;2023-05-27T07:13:35;6.75;;;4.63;;
7607;SDS011;3845;48.120;11.534;2023-05-27T07:16:00;8.20;;;4.43;;
7607;SDS011;3845;48.120;11.534;2023-05-27T07:18:26;9.25;;;3.60;;
7607;SDS011;3845;48.120;11.534;2023-05-27T07:20:51;6.65;;;3.97;;
7607;SDS011;3845;48.120;11.534;2023-05-27T07:23:16;5.55;;;3.60;;
7607;SDS011;3845;48.120;11.534;2023-05-27T07:25:42;6.72;;;3.47;;
7607;SDS011;3845;48.120;11.534;2023-05-27T07:28:07;7.25;;;4.40;;
7607;SDS011;3845;48.120;11.534;2023-05-27T07:30:32;7.10;;;4.05;;
7607;SDS011;3845;48.120;11.534;2023-05-27T07:32:57;8.50;;;3.85;;
7607;SDS011;3845;48.120;11.534;2023-05-27T07:35:23;5.03;;;3.53;;
7607;SDS011;3845;48.120;11.534;2023-05-27T07:37:48;8.45;;;3.85;;
7607;SDS011;3845;48.120;11.534;2023-05-27T07:40:13;7.15;;;4.10;;
7607;SDS011;3845;48.120;11.534;2023-05-27T07:42:39;6.88;;;4.60;;
7607;SDS011;3845;48.120;11.534;2023-05-27T07:45:04;6.53;;;3.75;;
7607;SDS011;3845;48.120;11.534;2023-05-27T07:47:30;7.20;;;4.13;;
7607;SDS011;3845;48.120;11.534;2023-05-27T07:49:56;7.72;;;4.43;;
7607;SDS011;3845;48.120;11.534;2023-05-27T07:52:21;8.57;;;4.97;;
7607;SDS011;3845;48.120;11.534;2023-05-27T07:54:46;5.77;;;3.80;;
7607;SDS011;3845;48.120;11.534;2023-05-27T07:57:13;9.37;;;4.90;;
7607;SDS011;3845;48.120;11.534;2023-05-27T07:59:41;9.87;;;4.77;;
7607;SDS011;3845;48.120;11.534;2023-05-27T08:02:07;8.67;;;4.80;;
7607;SDS011;3845;48.120;11.534;2023-05-27T08:04:32;7.60;;;4.80;;
7607;SDS011;3845;48.120;11.534;2023-05-27T08:06:57;7.63;;;4.10;;
7607;SDS011;3845;48.120;11.534;2023-05-27T08:09:23;9.30;;;4.47;;
7607;SDS011;3845;48.120;11.534;2023-05-27T08:11:49;7.27;;;4.10;;
7607;SDS011;3845;48.120;11.534;2023-05-27T08:14:15;6.73;;;3.97;;
7607;SDS011;3845;48.120;11.534;2023-05-27T08:16:41;7.70;;;4.40;;
7607;SDS011;3845;48.120;11.534;2023-05-27T08:19:06;7.13;;;4.30;;
7607;SDS011;3845;48.120;11.534;2023-05-27T08:21:31;8.80;;;5.00;;
7607;SDS011;3845;48.120;11.534;2023-05-27T08:23:57;9.57;;;4.90;;
7607;SDS011;3845;48.120;11.534;2023-05-27T08:26:22;10.67;;;4.90;;
7607;SDS011;3845;48.120;11.534;2023-05-27T08:28:48;9.10;;;4.80;;
7607;SDS011;3845;48.120;11.534;2023-05-27T08:31:13;7.40;;;4.40;;
7607;SDS011;3845;48.120;11.534;2023-05-27T08:33:38;7.07;;;4.87;;
7607;SDS011;3845;48.120;11.534;2023-05-27T08:36:05;10.87;;;5.50;;
7607;SDS011;3845;48.120;11.534;2023-05-27T08:38:30;10.63;;;5.03;;
7607;SDS011;3845;48.120;11.534;2023-05-27T08:40:56;7.57;;;4.60;;
7607;SDS011;3845;48.120;11.534;2023-05-27T08:43:21;7.60;;;4.60;;
7607;SDS011;3845;48.120;11.534;2023-05-27T08:45:47;11.37;;;5.43;;
7607;SDS011;3845;48.120;11.534;2023-05-27T08:48:13;9.60;;;5.10;;
7607;SDS011;3845;48.120;11.534;2023-05-27T08:50:39;8.63;;;5.30;;
7607;SDS011;3845;48.120;11.534;2023-05-27T08:53:05;10.73;;;5.50;;
7607;SDS011;3845;48.120;11.534;2023-05-27T08:55:30;9.03;;;5.40;;
7607;SDS011;3845;48.120;11.534;2023-05-27T08:57:57;9.30;;;5.43;;
7607;SDS011;3845;48.120;11.534;2023-05-27T09:00:26;10.47;;;5.10;;
7607;SDS011;3845;48.120;11.534;2023-05-27T09:02:51;9.90;;;5.20;;
7607;SDS011;3845;48.120;11.534;2023-05-27T09:05:19;10.37;;;5.20;;
7607;SDS011;3845;48.120;11.534;2023-05-27T09:07:44;8.83;;;5.07;;
7607;SDS011;3845;48.120;11.534;2023-05-27T09:10:10;7.83;;;5.10;;
7607;SDS011;3845;48.120;11.534;2023-05-27T09:12:35;7.73;;;5.20;;
7607;SDS011;3845;48.120;11.534;2023-05-27T09:15:02;10.27;;;5.40;;
7607;SDS011;3845;48.120;11.534;2023-05-27T09:17:28;9.47;;;4.97;;
7607;SDS011;3845;48.120;11.534;2023-05-27T09:19:54;6.93;;;5.30;;
7607;SDS011;3845;48.120;11.534;2023-05-27T09:22:20;11.57;;;6.30;;
7607;SDS011;3845;48.120;11.534;2023-05-27T09:24:47;9.67;;;6.20;;
7607;SDS011;3845;48.120;11.534;2023-05-27T09:27:12;7.53;;;5.10;;
7607;SDS011;3845;48.120;11.534;2023-05-27T09:29:38;7.73;;;5.20;;
7607;SDS011;3845;48.120;11.534;2023-05-27T09:32:05;6.90;;;4.90;;
7607;SDS011;3845;48.120;11.534;2023-05-27T09:34:37;7.70;;;5.63;;
7607;SDS011;3845;48.120;11.534;2023-05-27T09:37:03;9.03;;;5.53;;
7607;SDS011;3845;48.120;11.534;2023-05-27T09:39:29;9.80;;;5.50;;
7607;SDS011;3845;48.120;11.534;2023-05-27T09:41:56;9.83;;;5.60;;
7607;SDS011;3845;48.120;11.534;2023-05-27T09:44:24;8.63;;;5.87;;
7607;SDS011;3845;48.120;11.534;2023-05-27T09:46:54;7.73;;;4.90;;
7607;SDS011;3845;48.120;11.534;2023-05-27T09:49:19;9.20;;;5.17;;
7607;SDS011;3845;48.120;11.534;2023-05-27T09:51:46;7.60;;;5.03;;
7607;SDS011;3845;48.120;11.534;2023-05-27T09:54:12;7.97;;;4.97;;
7607;SDS011;3845;48.120;11.534;2023-05-27T09:56:42;11.63;;;6.13;;
7607;SDS011;3845;48.120;11.534;2023-05-27T09:59:08;10.60;;;5.33;;
7607;SDS011;3845;48.120;11.534;2023-05-27T10:01:34;12.57;;;6.27;;
7607;SDS011;3845;48.120;11.534;2023-05-27T10:04:00;11.73;;;5.83;;
7607;SDS011;3845;48.120;11.534;2023-05-27T10:06:26;8.77;;;6.40;;
7607;SDS011;3845;48.120;11.534;2023-05-27T10:08:51;12.20;;;6.10;;
7607;SDS011;3845;48.120;11.534;2023-05-27T10:11:17;10.27;;;5.97;;
7607;SDS011;3845;48.120;11.534;2023-05-27T10:13:43;8.90;;;5.43;;
7607;SDS011;3845;48.120;11.534;2023-05-27T10:16:17;6.60;;;4.90;;
7607;SDS011;3845;48.120;11.534;2023-05-27T10:18:44;8.27;;;5.53;;
7607;SDS011;3845;48.120;11.534;2023-05-27T10:21:10;7.10;;;5.40;;
7607;SDS011;3845;48.120;11.534;2023-05-27T10:23:59;8.93;;;5.90;;
7607;SDS011;3845;48.120;11.534;2023-05-27T10:26:32;8.67;;;5.30;;
7607;SDS011;3845;48.120;11.534;2023-05-27T10:31:33;8.27;;;5.40;;
7607;SDS011;3845;48.120;11.534;2023-05-27T10:33:58;8.00;;;5.03;;
7607;SDS011;3845;48.120;11.534;2023-05-27T10:36:27;8.73;;;4.73;;
7607;SDS011;3845;48.120;11.534;2023-05-27T10:39:01;7.10;;;5.20;;
7607;SDS011;3845;48.120;11.534;2023-05-27T10:41:42;11.50;;;5.67;;
7607;SDS011;3845;48.120;11.534;2023-05-27T10:44:08;9.73;;;5.47;;
7607;SDS011;3845;48.120;11.534;2023-05-27T10:46:37;9.77;;;5.93;;
7607;SDS011;3845;48.120;11.534;2023-05-27T10:49:11;8.63;;;6.07;;
7607;SDS011;3845;48.120;11.534;2023-05-27T10:51:38;7.80;;;5.27;;
7607;SDS011;3845;48.120;11.534;2023-05-27T10:54:03;8.90;;;6.17;;
7607;SDS011;3845;48.120;11.534;2023-05-27T10:56:30;9.60;;;5.90;;
7607;SDS011;3845;48.120;11.534;2023-05-27T10:58:55;8.93;;;5.93;;
7607;SDS011;3845;48.120;11.534;2023-05-27T11:01:21;8.87;;;5.67;;
7607;SDS011;3845;48.120;11.534;2023-05-27T11:03:48;7.57;;;4.80;;
7607;SDS011;3845;48.120;11.534;2023-05-27T11:06:15;11.63;;;5.93;;
7607;SDS011;3845;48.120;11.534;2023-05-27T11:08:41;8.33;;;5.37;;
7607;SDS011;3845;48.120;11.534;2023-05-27T11:13:36;9.77;;;5.70;;
7607;SDS011;3845;48.120;11.534;2023-05-27T11:16:05;7.83;;;5.40;;
7607;SDS011;3845;48.120;11.534;2023-05-27T11:18:37;6.93;;;5.07;;
7607;SDS011;3845;48.120;11.534;2023-05-27T11:21:12;7.50;;;4.87;;
7607;SDS011;3845;48.120;11.534;2023-05-27T11:23:45;7.23;;;5.27;;
7607;SDS011;3845;48.120;11.534;2023-05-27T11:28:44;6.40;;;5.13;;
7607;SDS011;3845;48.120;11.534;2023-05-27T11:31:12;7.40;;;5.10;;
7607;SDS011;3845;48.120;11.534;2023-05-27T11:33:40;6.97;;;4.73;;
7607;SDS011;3845;48.120;11.534;2023-05-27T11:36:06;9.57;;;5.33;;
7607;SDS011;3845;48.120;11.534;2023-05-27T11:38:45;8.00;;;5.00;;
7607;SDS011;3845;48.120;11.534;2023-05-27T11:41:12;7.23;;;5.20;;
7607;SDS011;3845;48.120;11.534;2023-05-27T11:43:46;8.43;;;5.00;;
7607;SDS011;3845;48.120;11.534;2023-05-27T11:46:22;8.30;;;5.27;;
7607;SDS011;3845;48.120;11.534;2023-05-27T11:48:47;9.00;;;5.30;;
7607;SDS011;3845;48.120;11.534;2023-05-27T11:51:13;10.17;;;5.03;;
7607;SDS011;3845;48.120;11.534;2023-05-27T11:53:39;8.83;;;4.93;;
7607;SDS011;3845;48.120;11.534;2023-05-27T11:56:10;10.13;;;5.30;;
7607;SDS011;3845;48.120;11.534;2023-05-27T11:58:36;6.90;;;5.03;;
7607;SDS011;3845;48.120;11.534;2023-05-27T12:01:02;7.10;;;5.10;;
7607;SDS011;3845;48.120;11.534;2023-05-27T12:03:28;8.50;;;5.33;;
7607;SDS011;3845;48.120;11.534;2023-05-27T12:05:53;7.63;;;4.97;;
7607;SDS011;3845;48.120;11.534;2023-05-27T12:08:19;9.30;;;4.80;;
7607;SDS011;3845;48.120;11.534;2023-05-27T12:10:44;6.70;;;4.93;;
7607;SDS011;3845;48.120;11.534;2023-05-27T12:13:11;7.30;;;5.07;;
7607;SDS011;3845;48.120;11.534;2023-05-27T12:15:36;12.93;;;4.83;;
7607;SDS011;3845;48.120;11.534;2023-05-27T12:18:01;7.47;;;5.10;;
7607;SDS011;3845;48.120;11.534;2023-05-27T12:20:27;8.13;;;5.20;;
7607;SDS011;3845;48.120;11.534;2023-05-27T12:22:53;7.10;;;4.77;;
7607;SDS011;3845;48.120;11.534;2023-05-27T12:25:20;8.40;;;4.80;;
7607;SDS011;3845;48.120;11.534;2023-05-27T12:27:45;8.30;;;4.57;;
7607;SDS011;3845;48.120;11.534;2023-05-27T12:30:10;8.53;;;4.73;;
7607;SDS011;3845;48.120;11.534;2023-05-27T12:32:37;7.80;;;5.03;;
7607;SDS011;3845;48.120;11.534;2023-05-27T12:35:03;6.30;;;4.77;;
7607;SDS011;3845;48.120;11.534;2023-05-27T12:37:29;7.87;;;4.53;;
7607;SDS011;3845;48.120;11.534;2023-05-27T12:39:54;6.07;;;4.60;;
7607;SDS011;3845;48.120;11.534;2023-05-27T12:42:19;6.40;;;4.60;;
7607;SDS011;3845;48.120;11.534;2023-05-27T12:44:45;6.63;;;4.50;;
7607;SDS011;3845;48.120;11.534;2023-05-27T12:47:10;5.90;;;4.53;;
7607;SDS011;3845;48.120;11.534;2023-05-27T12:49:35;7.23;;;4.40;;
7607;SDS011;3845;48.120;11.534;2023-05-27T12:52:01;7.30;;;4.53;;
7607;SDS011;3845;48.120;11.534;2023-05-27T12:54:28;8.17;;;4.80;;
7607;SDS011;3845;48.120;11.534;2023-05-27T12:56:53;7.43;;;4.70;;
7607;SDS011;3845;48.120;11.534;2023-05-27T12:59:18;6.93;;;4.80;;
7607;SDS011;3845;48.120;11.534;2023-05-27T13:01:44;8.00;;;4.63;;
7607;SDS011;3845;48.120;11.534;2023-05-27T13:04:09;6.33;;;4.60;;
7607;SDS011;3845;48.120;11.534;2023-05-27T13:06:34;8.20;;;4.67;;
7607;SDS011;3845;48.120;11.534;2023-05-27T13:08:59;8.93;;;4.83;;
7607;SDS011;3845;48.120;11.534;2023-05-27T13:11:25;6.33;;;4.60;;
7607;SDS011;3845;48.120;11.534;2023-05-27T13:13:51;6.83;;;4.70;;
7607;SDS011;3845;48.120;11.534;2023-05-27T13:16:16;6.87;;;4.10;;
7607;SDS011;3845;48.120;11.534;2023-05-27T13:18:42;8.17;;;5.30;;
7607;SDS011;3845;48.120;11.534;2023-05-27T13:21:07;10.47;;;5.47;;
7607;SDS011;3845;48.120;11.534;2023-05-27T13:23:32;6.33;;;4.60;;
7607;SDS011;3845;48.120;11.534;2023-05-27T13:25:58;8.23;;;4.63;;
7607;SDS011;3845;48.120;11.534;2023-05-27T13:28:23;10.37;;;5.10;;
7607;SDS011;3845;48.120;11.534;2023-05-27T13:30:49;7.47;;;5.33;;
7607;SDS011;3845;48.120;11.534;2023-05-27T13:33:14;6.17;;;4.13;;
7607;SDS011;3845;48.120;11.534;2023-05-27T13:35:40;8.97;;;4.40;;
7607;SDS011;3845;48.120;11.534;2023-05-27T13:38:06;6.27;;;4.20;;
7607;SDS011;3845;48.120;11.534;2023-05-27T13:40:37;8.07;;;5.17;;
7607;SDS011;3845;48.120;11.534;2023-05-27T13:43:02;6.07;;;4.33;;
7607;SDS011;3845;48.120;11.534;2023-05-27T13:45:27;7.23;;;4.60;;
7607;SDS011;3845;48.120;11.534;2023-05-27T13:47:53;6.83;;;4.60;;
7607;SDS011;3845;48.120;11.534;2023-05-27T13:50:18;7.60;;;4.23;;
7607;SDS011;3845;48.120;11.534;2023-05-27T13:52:44;6.60;;;4.27;;
7607;SDS011;3845;48.120;11.534;2023-05-27T13:55:10;7.00;;;4.60;;
7607;SDS011;3845;48.120;11.534;2023-05-27T13:57:36;7.27;;;4.40;;
7607;SDS011;3845;48.120;11.534;2023-05-27T14:00:02;8.93;;;4.47;;
7607;SDS011;3845;48.120;11.534;2023-05-27T14:02:27;6.83;;;4.90;;
7607;SDS011;3845;48.120;11.534;2023-05-27T14:04:53;7.27;;;4.23;;
7607;SDS011;3845;48.120;11.534;2023-05-27T14:07:18;5.50;;;4.13;;
7607;SDS011;3845;48.120;11.534;2023-05-27T14:09:43;6.50;;;4.70;;
7607;SDS011;3845;48.120;11.534;2023-05-27T14:12:09;7.17;;;4.23;;
7607;SDS011;3845;48.120;11.534;2023-05-27T14:14:34;6.80;;;4.33;;
7607;SDS011;3845;48.120;11.534;2023-05-27T14:17:01;7.90;;;4.57;;
7607;SDS011;3845;48.120;11.534;2023-05-27T14:19:26;7.00;;;4.30;;
7607;SDS011;3845;48.120;11.534;2023-05-27T14:21:51;12.53;;;4.60;;
7607;SDS011;3845;48.120;11.534;2023-05-27T14:24:17;8.30;;;4.10;;
7607;SDS011;3845;48.120;11.534;2023-05-27T14:26:42;5.10;;;4.13;;
7607;SDS011;3845;48.120;11.534;2023-05-27T14:29:08;7.37;;;4.43;;
7607;SDS011;3845;48.120;11.534;2023-05-27T14:31:34;7.37;;;4.23;;
7607;SDS011;3845;48.120;11.534;2023-05-27T14:33:59;6.27;;;4.03;;
7607;SDS011;3845;48.120;11.534;2023-05-27T14:36:25;7.70;;;4.40;;
7607;SDS011;3845;48.120;11.534;2023-05-27T14:38:50;6.23;;;4.27;;
7607;SDS011;3845;48.120;11.534;2023-05-27T14:41:15;6.13;;;3.80;;
7607;SDS011;3845;48.120;11.534;2023-05-27T14:43:41;7.00;;;4.33;;
7607;SDS011;3845;48.120;11.534;2023-05-27T14:46:07;5.77;;;4.20;;
7607;SDS011;3845;48.120;11.534;2023-05-27T14:48:32;6.67;;;4.20;;
7607;SDS011;3845;48.120;11.534;2023-05-27T14:50:57;7.30;;;4.30;;
7607;SDS011;3845;48.120;11.534;2023-05-27T14:53:23;7.97;;;4.37;;
7607;SDS011;3845;48.120;11.534;2023-05-27T14:55:48;8.10;;;4.60;;
7607;SDS011;3845;48.120;11.534;2023-05-27T14:58:15;7.93;;;4.50;;
7607;SDS011;3845;48.120;11.534;2023-05-27T15:00:41;8.73;;;4.77;;
7607;SDS011;3845;48.120;11.534;2023-05-27T15:03:06;7.03;;;4.97;;
7607;SDS011;3845;48.120;11.534;2023-05-27T15:05:31;6.07;;;4.20;;
7607;SDS011;3845;48.120;11.534;2023-05-27T15:07:57;9.93;;;4.90;;
7607;SDS011;3845;48.120;11.534;2023-05-27T15:10:22;7.57;;;4.53;;
7607;SDS011;3845;48.120;11.534;2023-05-27T15:12:48;7.70;;;4.60;;